Time;durP1;ratioP1;P1;durP2;ratioP2;P2;SDS_P1;SDS_P2;PMS_P1;PMS_P2;Temp;Humidity;BMP_temperature;BMP_pressure;BME280_temperature;BME280_humidity;BME280_pressure;Samples;Min_cycle;Max_cycle;Signal;HPM_P1;HPM_P2
2022/03/22 00:01:56;;;;;;;52.05;34.47;;;;;;;8.41;73.80;102963.59;5031990;28;20049;-58
2022/03/22 00:04:21;;;;;;;47.70;33.72;;;;;;;8.36;74.36;102963.03;5033368;28;20272;-58
2022/03/22 00:06:47;;;;;;;48.08;33.13;;;;;;;8.33;74.53;102965.84;5032981;28;20073;-58
2022/03/22 00:09:12;;;;;;;49.83;34.08;;;;;;;8.29;74.57;102964.34;5033337;28;20033;-58
2022/03/22 00:11:37;;;;;;;48.15;33.20;;;;;;;8.25;74.59;102963.69;5033898;28;20100;-58
2022/03/22 00:14:03;;;;;;;49.63;33.15;;;;;;;8.23;74.44;102970.00;5034459;28;20365;-57
2022/03/22 00:16:29;;;;;;;49.83;33.33;;;;;;;8.19;74.60;102967.53;5032872;28;20037;-58
2022/03/22 00:18:54;;;;;;;49.05;34.50;;;;;;;8.14;74.83;102969.59;5033754;28;20554;-58
2022/03/22 00:21:20;;;;;;;49.78;33.63;;;;;;;8.10;74.50;102965.47;5032890;28;20033;-58
2022/03/22 00:23:47;;;;;;;49.67;33.22;;;;;;;8.07;74.68;102970.94;5032588;28;20075;-57
2022/03/22 00:26:12;;;;;;;47.17;33.50;;;;;;;8.05;74.63;102967.53;5033134;28;20101;-58
2022/03/22 00:28:38;;;;;;;46.25;33.50;;;;;;;8.04;74.75;102965.84;5033628;28;20117;-57
2022/03/22 00:31:07;;;;;;;47.50;33.47;;;;;;;8.04;74.76;102965.84;5033947;28;20064;-58
2022/03/22 00:33:32;;;;;;;48.20;33.42;;;;;;;8.03;74.62;102972.03;5033876;28;20035;-57
2022/03/22 00:35:58;;;;;;;51.40;33.65;;;;;;;8.00;74.71;102974.88;5031517;28;20025;-58
2022/03/22 00:38:24;;;;;;;46.97;33.13;;;;;;;7.99;74.58;102967.91;5033536;28;20029;-58
2022/03/22 00:40:49;;;;;;;50.45;33.53;;;;;;;7.94;74.99;102976.09;5032374;28;20025;-58
2022/03/22 00:43:14;;;;;;;49.10;32.45;;;;;;;7.92;74.44;102980.63;5033890;28;20108;-57
2022/03/22 00:45:40;;;;;;;47.95;32.92;;;;;;;7.88;74.33;102981.72;5032477;28;20083;-58
2022/03/22 00:48:08;;;;;;;49.03;32.67;;;;;;;7.81;75.23;102975.97;5033187;28;20029;-58
2022/03/22 00:50:36;;;;;;;48.88;33.95;;;;;;;7.80;75.37;102979.56;5031859;28;20048;-58
2022/03/22 00:53:04;;;;;;;52.28;33.72;;;;;;;7.74;75.87;102974.66;5032686;28;20060;-58
2022/03/22 00:55:30;;;;;;;56.90;34.72;;;;;;;7.78;74.95;102971.72;5033359;28;20104;-56
2022/03/22 00:57:56;;;;;;;50.20;33.67;;;;;;;7.79;75.40;102972.56;5033098;28;20112;-57
2022/03/22 01:00:26;;;;;;;48.13;34.00;;;;;;;7.76;75.56;102972.75;5032981;28;20041;-58
2022/03/22 01:02:58;;;;;;;47.65;32.42;;;;;;;7.72;75.34;102976.50;5033506;28;20018;-57
2022/03/22 01:05:25;;;;;;;45.40;32.88;;;;;;;7.77;75.10;102974.44;5032737;28;20049;-57
2022/03/22 01:07:56;;;;;;;49.63;34.08;;;;;;;7.76;75.18;102980.69;5032756;28;20078;-58
2022/03/22 01:10:24;;;;;;;46.45;32.17;;;;;;;7.66;75.07;102978.56;5030768;28;20041;-57
2022/03/22 01:12:49;;;;;;;47.03;32.65;;;;;;;7.67;75.73;102977.66;5032353;28;20056;-57
2022/03/22 01:15:20;;;;;;;55.33;33.45;;;;;;;7.66;75.51;102983.84;5033581;28;20477;-57
2022/03/22 01:17:48;;;;;;;48.05;33.33;;;;;;;7.56;75.91;102974.78;5033117;28;20102;-58
2022/03/22 01:20:15;;;;;;;47.75;32.97;;;;;;;7.63;75.74;102984.03;5032702;28;20033;-57
2022/03/22 01:22:42;;;;;;;48.88;33.28;;;;;;;7.60;75.54;102981.56;5033377;28;20033;-57
2022/03/22 01:25:09;;;;;;;48.92;33.17;;;;;;;7.62;75.14;102987.63;5030348;28;20038;-58
2022/03/22 01:27:36;;;;;;;49.10;31.98;;;;;;;7.56;75.07;102982.69;5031255;28;20373;-58
2022/03/22 01:30:05;;;;;;;45.78;31.73;;;;;;;7.57;75.21;102984.38;5032235;28;20099;-58
2022/03/22 01:32:30;;;;;;;44.35;31.05;;;;;;;7.59;75.09;102982.50;5031625;28;20068;-57
2022/03/22 01:34:56;;;;;;;42.72;30.20;;;;;;;7.63;75.29;102983.16;5033023;28;20061;-58
2022/03/22 01:37:21;;;;;;;44.70;30.35;;;;;;;7.60;75.40;102984.19;5032473;28;20033;-57
2022/03/22 01:39:46;;;;;;;48.35;31.35;;;;;;;7.60;75.41;102983.38;5033243;28;20036;-57
2022/03/22 01:42:12;;;;;;;45.00;30.02;;;;;;;7.59;75.36;102987.78;5033105;28;20021;-57
2022/03/22 01:44:37;;;;;;;47.33;31.13;;;;;;;7.56;75.47;102982.69;5032082;28;20021;-58
2022/03/22 01:47:03;;;;;;;46.15;29.23;;;;;;;7.54;75.31;102979.28;5032926;28;20025;-57
2022/03/22 01:49:29;;;;;;;42.70;29.67;;;;;;;7.52;75.35;102983.81;5032607;28;20164;-57
2022/03/22 01:51:55;;;;;;;43.85;28.98;;;;;;;7.56;74.90;102977.41;5031323;28;20104;-57
2022/03/22 01:54:21;;;;;;;46.95;29.05;;;;;;;7.53;75.14;102985.50;5031347;28;20713;-58
2022/03/22 01:56:46;;;;;;;40.95;29.63;;;;;;;7.51;75.04;102980.28;5031863;28;20037;-57
2022/03/22 01:59:12;;;;;;;41.67;29.70;;;;;;;7.51;75.68;102979.47;5031976;28;20365;-58
2022/03/22 02:07:06;;;;;;;44.10;29.70;;;;;;;7.42;75.92;102969.41;5032295;28;20456;-58
2022/03/22 02:09:32;;;;;;;39.35;28.35;;;;;;;7.38;74.65;102974.88;5031973;28;20049;-57
2022/03/22 02:11:57;;;;;;;40.65;29.25;;;;;;;7.35;75.36;102977.69;5029883;28;20411;-58
2022/03/22 02:14:22;;;;;;;43.22;28.40;;;;;;;7.35;75.58;102968.94;5032197;28;20606;-58
2022/03/22 02:16:48;;;;;;;40.78;27.52;;;;;;;7.31;75.18;102970.91;5031828;28;20048;-57
2022/03/22 02:19:16;;;;;;;40.55;28.98;;;;;;;7.31;75.51;102968.25;5032052;28;20045;-58
2022/03/22 02:21:42;;;;;;;43.67;28.25;;;;;;;7.30;75.85;102966.53;5030454;28;20037;-57
2022/03/22 02:24:08;;;;;;;44.42;28.08;;;;;;;7.26;76.24;102959.75;5031675;28;20037;-57
2022/03/22 02:26:33;;;;;;;42.03;28.30;;;;;;;7.23;75.46;102962.56;5031251;28;20493;-57
2022/03/22 02:28:59;;;;;;;39.45;27.63;;;;;;;7.20;75.74;102963.56;5032014;28;20682;-57
2022/03/22 02:31:27;;;;;;;38.22;27.42;;;;;;;7.18;75.35;102959.31;5031453;28;20029;-58
2022/03/22 02:33:52;;;;;;;40.25;27.33;;;;;;;7.18;76.27;102961.94;5033493;28;20037;-57
2022/03/22 02:36:18;;;;;;;41.90;27.45;;;;;;;7.17;75.47;102970.81;5031676;28;20032;-58
2022/03/22 02:38:43;;;;;;;40.10;26.70;;;;;;;7.12;75.63;102974.56;5043008;28;20056;-57
2022/03/22 02:41:19;;;;;;;39.65;26.92;;;;;;;7.07;75.79;102973.97;5034300;28;20170;-56
2022/03/22 02:43:48;;;;;;;40.47;26.23;;;;;;;6.98;75.22;102956.00;5031472;28;20059;-57
2022/03/22 02:46:14;;;;;;;39.95;27.00;;;;;;;7.07;76.05;102971.34;5033097;28;20033;-57
2022/03/22 02:48:40;;;;;;;39.75;27.00;;;;;;;7.06;76.04;102974.91;5029784;28;20029;-57
2022/03/22 02:51:05;;;;;;;42.08;27.17;;;;;;;7.05;76.12;102973.19;5030579;28;20090;-58
2022/03/22 02:53:31;;;;;;;39.25;25.33;;;;;;;7.02;76.16;102976.03;5026595;28;20030;-57
2022/03/22 02:55:59;;;;;;;40.92;26.48;;;;;;;6.99;76.18;102981.44;5031743;28;20464;-57
2022/03/22 02:58:24;;;;;;;37.28;25.88;;;;;;;6.97;75.90;102972.78;5028779;28;20033;-58
2022/03/22 03:00:50;;;;;;;39.22;26.77;;;;;;;6.95;76.56;102977.28;5027658;28;20428;-57
2022/03/22 03:03:19;;;;;;;43.17;27.80;;;;;;;6.92;76.43;102972.19;5029642;28;20806;-58
2022/03/22 03:05:45;;;;;;;38.30;26.90;;;;;;;6.91;75.90;102975.75;5029047;28;20641;-57
2022/03/22 03:08:10;;;;;;;39.47;26.52;;;;;;;6.89;76.64;102972.34;5030463;28;20033;-57
2022/03/22 03:10:35;;;;;;;38.42;26.55;;;;;;;6.83;76.67;102971.75;5030851;28;20431;-57
2022/03/22 03:13:04;;;;;;;40.13;26.73;;;;;;;6.79;76.74;102978.13;5030897;28;20484;-58
2022/03/22 03:15:30;;;;;;;37.67;26.15;;;;;;;6.77;77.03;102980.00;5031057;28;20033;-56
2022/03/22 03:17:56;;;;;;;39.17;26.20;;;;;;;6.73;76.61;102975.84;5030249;28;20029;-57
2022/03/22 03:20:21;;;;;;;37.83;25.60;;;;;;;6.73;76.08;102973.19;5030735;28;20029;-59
2022/03/22 03:22:46;;;;;;;41.05;25.27;;;;;;;6.69;76.87;102976.91;5030731;28;20064;-57
2022/03/22 03:25:13;;;;;;;35.25;25.23;;;;;;;6.67;76.25;102982.28;5033908;28;20044;-58
2022/03/22 03:27:38;;;;;;;34.35;24.52;;;;;;;6.62;76.55;102972.91;5033666;28;20409;-56
2022/03/22 03:30:05;;;;;;;42.65;25.17;;;;;;;6.55;77.21;102978.53;5033115;28;20041;-57
2022/03/22 03:32:31;;;;;;;37.50;25.85;;;;;;;6.55;77.15;102978.53;5033922;28;20540;-56
2022/03/22 03:34:56;;;;;;;37.42;26.05;;;;;;;6.57;76.56;102984.56;5033595;28;20029;-57
2022/03/22 03:37:23;;;;;;;36.65;25.35;;;;;;;6.54;76.83;102990.00;5035034;28;20040;-58
2022/03/22 03:39:49;;;;;;;34.78;24.50;;;;;;;6.53;76.75;102983.03;5033196;28;20408;-58
2022/03/22 03:42:14;;;;;;;38.05;25.17;;;;;;;6.52;75.89;102996.28;5034425;28;20037;-58
2022/03/22 03:47:24;;;;;;;37.00;25.27;;;;;;;6.45;76.94;102996.63;5034634;28;20095;-58
2022/03/22 03:49:51;;;;;;;38.33;25.48;;;;;;;6.35;76.46;102989.28;5035111;28;20500;-57
2022/03/22 03:52:18;;;;;;;38.58;25.58;;;;;;;6.34;77.15;103001.59;5029593;28;20079;-58
2022/03/22 03:54:44;;;;;;;37.28;24.83;;;;;;;6.33;76.72;102994.63;5033844;28;20733;-57
2022/03/22 03:57:11;;;;;;;38.08;24.85;;;;;;;6.30;76.93;103000.91;5035288;28;20049;-58
2022/03/22 03:59:37;;;;;;;36.83;25.15;;;;;;;6.24;77.63;102998.59;5034663;28;20103;-57
2022/03/22 04:02:04;;;;;;;37.08;24.73;;;;;;;6.35;77.27;103003.28;5034132;28;20033;-57
2022/03/22 04:04:29;;;;;;;38.40;25.77;;;;;;;6.25;77.51;103008.19;5034595;28;20029;-58
2022/03/22 04:06:55;;;;;;;38.55;25.75;;;;;;;6.22;77.01;103000.44;5034197;28;20045;-57
2022/03/22 04:09:20;;;;;;;37.40;25.20;;;;;;;6.17;77.22;103005.94;5032998;28;20033;-57
2022/03/22 04:11:46;;;;;;;37.30;26.00;;;;;;;6.12;77.65;103009.75;5033220;28;20049;-57
2022/03/22 04:14:12;;;;;;;37.25;26.00;;;;;;;6.08;77.53;103009.06;5033146;28;20037;-57
2022/03/22 04:16:38;;;;;;;36.58;24.60;;;;;;;6.02;77.00;103004.06;5033489;28;20029;-57
2022/03/22 04:19:07;;;;;;;36.10;25.52;;;;;;;6.02;77.92;103010.22;5033616;28;20112;-57
2022/03/22 04:21:35;;;;;;;36.83;25.42;;;;;;;5.97;78.56;103006.91;5033826;28;20476;-57
2022/03/22 04:24:08;;;;;;;39.60;25.05;;;;;;;6.06;78.05;103010.91;5032715;28;20175;-57
2022/03/22 04:26:35;;;;;;;34.67;24.25;;;;;;;6.11;78.60;103010.69;5033713;28;20030;-57
2022/03/22 04:34:30;;;;;;;35.55;24.33;;;;;;;6.17;77.39;103003.31;5032520;28;20044;-57
2022/03/22 04:36:56;;;;;;;33.95;24.30;;;;;;;6.16;77.02;103008.66;5032115;28;20420;-57
2022/03/22 04:39:26;;;;;;;35.50;24.35;;;;;;;6.12;78.04;103000.06;5033599;28;20029;-57
2022/03/22 04:41:51;;;;;;;34.70;23.85;;;;;;;6.10;77.59;103001.06;5033802;28;20423;-57
2022/03/22 04:44:17;;;;;;;38.15;24.25;;;;;;;6.07;77.97;103003.88;5033495;28;20033;-57
2022/03/22 04:46:43;;;;;;;34.28;24.23;;;;;;;6.01;78.27;103000.59;5031275;28;20022;-57
2022/03/22 04:49:08;;;;;;;38.53;24.02;;;;;;;6.02;77.69;103010.22;5040578;28;20033;-56
2022/03/22 04:57:02;;;;;;;37.35;24.58;;;;;;;5.93;78.07;103016.75;5038395;28;20048;-57
2022/03/22 04:59:28;;;;;;;35.95;24.33;;;;;;;5.93;77.67;103021.19;5033196;28;20113;-56
2022/03/22 05:01:53;;;;;;;36.17;24.48;;;;;;;5.87;77.98;103021.50;5029065;28;20029;-57
2022/03/22 05:04:19;;;;;;;39.67;24.35;;;;;;;5.87;78.21;103022.34;5028662;28;20053;-57
2022/03/22 05:06:45;;;;;;;38.45;24.45;;;;;;;5.86;78.45;103020.63;5031730;28;20038;-57
2022/03/22 05:09:11;;;;;;;34.78;24.00;;;;;;;5.84;77.85;103026.91;5031800;28;20030;-57
2022/03/22 05:11:37;;;;;;;37.22;24.40;;;;;;;5.85;78.24;103023.34;5033082;28;20042;-57
2022/03/22 05:14:03;;;;;;;39.53;23.80;;;;;;;5.83;77.55;103026.06;5032839;28;20495;-56
2022/03/22 05:16:31;;;;;;;34.28;23.90;;;;;;;5.84;78.46;103027.78;5032980;28;20037;-57
2022/03/22 05:18:57;;;;;;;35.45;24.88;;;;;;;5.83;78.97;103031.34;5031911;28;20064;-57
2022/03/22 05:21:24;;;;;;;34.35;23.67;;;;;;;5.82;77.58;103034.03;5031977;28;20067;-57
2022/03/22 05:23:50;;;;;;;36.53;24.02;;;;;;;5.81;77.82;103037.59;5031371;28;20082;-55
2022/03/22 05:26:15;;;;;;;36.47;23.88;;;;;;;5.81;78.34;103037.59;5032225;28;20029;-57
2022/03/22 05:28:41;;;;;;;35.22;25.10;;;;;;;5.79;78.58;103035.88;5031988;28;20453;-56
2022/03/22 05:31:09;;;;;;;36.65;23.60;;;;;;;5.77;78.09;103035.09;5023211;28;20034;-57
2022/03/22 05:33:34;;;;;;;38.17;24.35;;;;;;;5.77;77.95;103048.28;5025622;28;20065;-57
2022/03/22 05:36:00;;;;;;;37.85;24.05;;;;;;;5.72;78.73;103045.00;5030666;28;20087;-57
2022/03/22 05:38:26;;;;;;;35.90;23.85;;;;;;;5.73;78.46;103041.44;5032069;28;20494;-57
2022/03/22 05:40:52;;;;;;;37.83;24.75;;;;;;;5.72;78.34;103046.81;5031807;28;20040;-57
2022/03/22 05:43:17;;;;;;;35.30;23.88;;;;;;;5.74;78.48;103045.81;5029753;28;20037;-57
2022/03/22 05:45:49;;;;;;;36.40;23.55;;;;;;;5.75;78.25;103050.13;5032770;28;20025;-57
2022/03/22 05:48:15;;;;;;;38.00;24.30;;;;;;;5.73;79.18;103049.34;5033131;28;20037;-57
2022/03/22 05:50:41;;;;;;;38.40;24.40;;;;;;;5.73;78.12;103046.72;5031844;28;20029;-57
2022/03/22 05:53:06;;;;;;;39.85;24.58;;;;;;;5.74;78.35;103048.44;5032440;28;20057;-57
2022/03/22 05:55:31;;;;;;;41.00;25.45;;;;;;;5.73;78.89;103051.16;5032873;28;20030;-57
2022/03/22 05:57:56;;;;;;;38.50;24.45;;;;;;;5.75;78.86;103038.75;5031239;28;20175;-57
2022/03/22 06:00:22;;;;;;;36.88;24.00;;;;;;;5.76;78.57;103041.31;5022109;28;20073;-59
2022/03/22 06:02:47;;;;;;;38.10;23.58;;;;;;;5.77;78.54;103050.91;5025589;28;20040;-59
2022/03/22 06:05:14;;;;;;;35.97;24.48;;;;;;;5.73;79.10;103051.97;5031980;28;20120;-59
2022/03/22 06:07:40;;;;;;;36.97;24.92;;;;;;;5.78;79.12;103059.66;5032372;28;20034;-59
2022/03/22 06:10:07;;;;;;;37.03;24.95;;;;;;;5.77;78.80;103061.44;5031469;28;20033;-60
2022/03/22 06:12:52;;;;;;;38.55;24.65;;;;;;;5.84;78.71;103058.50;5031790;28;20084;-57
2022/03/22 06:15:20;;;;;;;38.90;23.05;;;;;;;5.75;78.39;103050.13;5031382;28;20104;-57
2022/03/22 06:17:50;;;;;;;37.28;25.02;;;;;;;5.79;78.53;103062.22;5032016;28;20041;-58
2022/03/22 06:20:16;;;;;;;43.10;24.63;;;;;;;5.79;79.61;103056.94;5030762;28;20033;-57
2022/03/22 06:22:42;;;;;;;41.28;25.15;;;;;;;5.83;78.57;103068.19;5030585;28;20040;-59
2022/03/22 06:25:08;;;;;;;36.05;23.92;;;;;;;5.87;78.41;103063.63;5030773;28;20033;-58
2022/03/22 06:27:35;;;;;;;38.45;24.55;;;;;;;5.91;79.78;103065.16;5025458;28;20032;-58
2022/03/22 06:30:05;;;;;;;39.25;25.10;;;;;;;5.84;79.24;103059.38;5045762;28;20036;-58
2022/03/22 06:32:38;;;;;;;35.72;24.80;;;;;;;5.96;79.29;103068.44;5019606;28;20092;-58
2022/03/22 06:35:04;;;;;;;38.88;25.13;;;;;;;5.99;78.16;103068.28;5021730;28;20040;-58
2022/03/22 06:37:29;;;;;;;37.42;24.67;;;;;;;6.03;78.15;103069.84;5031685;28;20037;-60
2022/03/22 06:39:54;;;;;;;36.95;24.48;;;;;;;6.12;78.78;103072.97;5030381;28;20053;-61
2022/03/22 06:42:20;;;;;;;39.25;24.98;;;;;;;6.15;78.13;103067.53;5029348;28;20128;-59
2022/03/22 06:44:45;;;;;;;40.38;25.52;;;;;;;6.22;77.90;103074.19;5028319;28;20041;-57
2022/03/22 06:47:10;;;;;;;37.20;24.88;;;;;;;6.25;77.61;103074.06;5024664;28;20096;-59
2022/03/22 06:49:36;;;;;;;39.33;25.83;;;;;;;6.29;78.09;103074.75;5024574;28;20512;-59
2022/03/22 06:52:01;;;;;;;38.78;25.13;;;;;;;6.36;78.67;103075.31;5019814;28;20037;-58
2022/03/22 06:54:27;;;;;;;38.70;25.83;;;;;;;6.38;79.12;103083.97;5020154;28;20104;-59
2022/03/22 06:56:53;;;;;;;40.10;26.27;;;;;;;6.43;79.03;103084.59;5037455;28;20029;-57
2022/03/22 06:59:18;;;;;;;38.08;25.48;;;;;;;6.49;78.74;103081.66;5024361;28;20044;-58
2022/03/22 07:01:43;;;;;;;41.28;26.40;;;;;;;6.55;78.88;103086.59;5021837;28;20061;-58
2022/03/22 07:04:09;;;;;;;40.92;26.33;;;;;;;6.64;78.57;103084.41;5021421;28;20042;-59
2022/03/22 07:06:34;;;;;;;41.65;26.58;;;;;;;6.69;77.89;103087.66;5019460;28;20057;-59
2022/03/22 07:08:59;;;;;;;41.03;26.17;;;;;;;6.77;78.64;103090.78;5023482;28;20041;-57
2022/03/22 07:14:08;;;;;;;39.80;26.73;;;;;;;6.92;77.22;103082.97;5022856;28;20056;-56
2022/03/22 07:16:34;;;;;;;42.40;27.02;;;;;;;6.99;77.62;103086.97;5023974;28;20026;-57
2022/03/22 07:18:59;;;;;;;39.80;26.30;;;;;;;7.04;76.60;103092.84;5021204;28;20040;-56
2022/03/22 07:21:24;;;;;;;39.50;26.67;;;;;;;7.16;76.42;103093.13;5022779;28;20041;-58
2022/03/22 07:23:50;;;;;;;39.88;26.42;;;;;;;7.22;76.46;103092.81;5022808;28;20018;-56
2022/03/22 07:26:16;;;;;;;40.38;26.50;;;;;;;7.30;76.57;103093.22;5022169;28;20401;-59
2022/03/22 07:28:42;;;;;;;43.88;26.48;;;;;;;7.40;75.93;103089.16;5024692;28;20529;-59
2022/03/22 07:31:07;;;;;;;42.13;25.52;;;;;;;7.50;74.95;103088.66;5038896;28;20036;-59
2022/03/22 07:33:33;;;;;;;41.17;26.65;;;;;;;7.61;74.42;103096.81;5027665;28;20021;-60
2022/03/22 07:35:58;;;;;;;38.53;25.77;;;;;;;7.66;74.46;103097.41;5022259;28;20471;-59
2022/03/22 07:38:23;;;;;;;37.70;25.98;;;;;;;7.79;74.05;103096.69;5027432;28;20037;-59
2022/03/22 07:40:48;;;;;;;40.85;26.58;;;;;;;7.90;73.97;103102.22;5045654;28;20036;-59
2022/03/22 07:43:14;;;;;;;38.72;26.17;;;;;;;8.00;73.34;103101.72;5030960;28;20029;-58
2022/03/22 07:45:39;;;;;;;41.38;26.30;;;;;;;8.11;73.20;103096.66;5022617;28;20054;-57
2022/03/22 07:48:05;;;;;;;37.33;25.65;;;;;;;8.20;72.94;103093.47;5027702;28;20029;-56
2022/03/22 07:53:14;;;;;;;40.08;26.35;;;;;;;8.40;71.92;103095.88;5029639;28;20064;-57
2022/03/22 07:55:41;;;;;;;41.03;25.90;;;;;;;8.47;71.54;103095.44;5025791;28;20026;-56
2022/03/22 07:58:08;;;;;;;38.80;25.52;;;;;;;8.60;71.17;103100.00;5030777;28;20018;-56
2022/03/22 08:00:35;;;;;;;37.28;26.55;;;;;;;8.70;70.75;103095.88;5024700;28;20033;-56
2022/03/22 08:03:03;;;;;;;38.65;26.50;;;;;;;8.77;71.07;103100.78;5029352;28;20136;-57
2022/03/22 08:05:30;;;;;;;38.88;25.92;;;;;;;8.86;70.41;103102.84;5041977;28;20025;-57
2022/03/22 08:07:56;;;;;;;38.33;25.38;;;;;;;8.96;69.55;103111.94;5030595;28;20026;-57
2022/03/22 08:10:22;;;;;;;40.03;25.58;;;;;;;9.08;69.15;103109.47;5037999;28;20550;-57
2022/03/22 08:12:48;;;;;;;38.10;25.80;;;;;;;9.19;69.34;103107.00;5033072;28;20514;-57
2022/03/22 08:15:16;;;;;;;39.50;25.08;;;;;;;9.23;69.53;103103.19;5033830;28;20117;-57
2022/03/22 08:17:42;;;;;;;37.92;24.75;;;;;;;9.34;66.74;103105.19;5034561;28;20040;-57
2022/03/22 08:20:10;;;;;;;38.67;25.42;;;;;;;9.52;65.63;103119.03;5034360;28;20026;-56
2022/03/22 08:23:04;;;;;;;38.42;24.38;;;;;;;9.62;67.99;103107.88;5028589;28;20105;-57
2022/03/22 08:25:36;;;;;;;35.25;24.63;;;;;;;9.72;65.99;103113.44;5038328;28;20358;-57
2022/03/22 08:28:04;;;;;;;39.47;24.45;;;;;;;9.81;65.34;103103.06;5037170;28;20021;-57
2022/03/22 08:30:30;;;;;;;37.10;24.45;;;;;;;9.89;65.22;103109.66;5040595;28;20029;-57
2022/03/22 08:32:59;;;;;;;37.85;24.52;;;;;;;9.97;64.96;103107.38;5039174;28;20059;-57
2022/03/22 08:35:26;;;;;;;37.33;23.95;;;;;;;10.06;64.00;103104.09;5034737;28;20500;-57
2022/03/22 08:37:53;;;;;;;38.03;23.90;;;;;;;10.15;62.08;103099.13;5034268;28;20045;-57
2022/03/22 08:40:18;;;;;;;33.95;23.70;;;;;;;10.24;63.43;103103.81;5034158;28;20025;-57
2022/03/22 08:42:46;;;;;;;40.00;23.88;;;;;;;10.36;62.70;103102.13;5032587;28;20557;-57
2022/03/22 08:45:13;;;;;;;37.90;23.80;;;;;;;10.53;61.41;103106.31;5027031;28;20029;-57
2022/03/22 08:47:40;;;;;;;39.72;24.05;;;;;;;10.63;60.79;103104.75;5033766;28;20034;-56
2022/03/22 08:50:10;;;;;;;38.97;24.23;;;;;;;10.69;60.89;103105.25;5024110;28;20163;-57
2022/03/22 08:52:37;;;;;;;34.35;23.17;;;;;;;10.71;61.63;103111.31;5033838;28;20063;-57
2022/03/22 08:55:04;;;;;;;37.15;24.23;;;;;;;10.75;60.82;103105.69;5033910;28;20041;-57
2022/03/22 08:57:30;;;;;;;38.72;23.98;;;;;;;10.93;59.73;103109.81;5033870;28;20397;-56
2022/03/22 08:59:55;;;;;;;35.67;23.58;;;;;;;11.08;58.31;103106.09;5033627;28;20033;-57
2022/03/22 09:02:20;;;;;;;36.40;23.67;;;;;;;11.22;58.43;103106.91;5033604;28;20040;-57
2022/03/22 09:07:29;;;;;;;35.17;23.80;;;;;;;11.33;58.87;103106.97;5020696;28;20055;-57
2022/03/22 09:09:54;;;;;;;35.90;23.30;;;;;;;11.40;57.66;103108.22;5033627;28;20029;-57
2022/03/22 09:12:20;;;;;;;37.30;22.73;;;;;;;11.43;57.18;103100.06;5036234;28;20361;-57
2022/03/22 09:14:46;;;;;;;33.78;22.40;;;;;;;11.51;56.86;103109.25;5033816;28;20034;-57
2022/03/22 09:17:11;;;;;;;34.33;22.80;;;;;;;11.59;55.90;103104.22;5040937;28;20068;-56
2022/03/22 09:19:36;;;;;;;37.97;23.42;;;;;;;11.64;56.43;103099.44;5033669;28;20033;-56
2022/03/22 09:22:05;;;;;;;38.97;23.55;;;;;;;11.68;55.03;103105.38;5033597;28;20143;-55
2022/03/22 09:24:31;;;;;;;34.03;22.73;;;;;;;11.89;54.63;103105.59;5032779;28;20578;-56
2022/03/22 09:26:56;;;;;;;35.35;22.75;;;;;;;11.89;53.78;103097.59;5033922;28;20036;-56
2022/03/22 09:29:21;;;;;;;36.85;22.83;;;;;;;12.01;53.57;103102.97;5043063;28;20041;-56
2022/03/22 09:31:47;;;;;;;37.42;23.77;;;;;;;12.19;53.05;103098.13;5024460;28;20030;-56
2022/03/22 09:34:13;;;;;;;35.67;23.67;;;;;;;12.19;54.53;103098.94;5033797;28;20072;-56
2022/03/22 09:36:38;;;;;;;35.65;24.17;;;;;;;12.27;54.15;103095.72;5033419;28;20033;-56
2022/03/22 09:39:05;;;;;;;38.50;23.25;;;;;;;12.32;53.52;103095.34;5041227;28;20080;-56
2022/03/22 09:41:32;;;;;;;35.60;23.52;;;;;;;12.36;53.23;103099.47;5033586;28;20084;-56
2022/03/22 09:43:57;;;;;;;39.58;23.17;;;;;;;12.44;51.70;103099.72;5031946;28;20116;-56
2022/03/22 09:46:23;;;;;;;35.20;23.15;;;;;;;12.49;51.79;103100.22;5034530;28;20417;-56
2022/03/22 09:48:49;;;;;;;36.05;23.38;;;;;;;12.63;51.01;103101.00;5033279;28;20033;-56
2022/03/22 09:54:01;;;;;;;34.97;22.67;;;;;;;12.69;50.80;103095.19;5028783;28;20056;-58
2022/03/22 09:56:30;;;;;;;35.90;24.10;;;;;;;12.84;50.82;103092.28;5031039;28;20029;-59
2022/03/22 09:58:57;;;;;;;38.50;23.70;;;;;;;12.89;50.80;103095.44;5032989;28;20026;-58
2022/03/22 10:01:22;;;;;;;41.08;24.00;;;;;;;12.94;50.26;103092.41;5032334;28;20025;-59
2022/03/22 10:03:56;;;;;;;38.55;24.10;;;;;;;12.97;50.30;103093.00;5032238;28;20053;-59
2022/03/22 10:06:22;;;;;;;39.25;23.23;;;;;;;13.04;49.57;103093.38;5031927;28;20022;-59
2022/03/22 10:08:50;;;;;;;37.78;23.50;;;;;;;13.13;49.29;103091.78;5032786;28;20041;-59
2022/03/22 10:11:16;;;;;;;35.35;23.55;;;;;;;13.20;49.20;103087.66;5031451;28;20388;-59
2022/03/22 10:13:54;;;;;;;38.88;24.23;;;;;;;13.27;49.38;103088.00;5032540;28;20104;-59
2022/03/22 10:16:19;;;;;;;35.22;23.27;;;;;;;13.36;49.37;103086.41;5032234;28;20116;-59
2022/03/22 10:18:45;;;;;;;38.28;23.23;;;;;;;13.37;46.98;103078.28;5032533;28;20528;-58
2022/03/22 10:21:10;;;;;;;40.05;24.52;;;;;;;13.41;48.57;103078.88;5032260;28;20512;-58
2022/03/22 10:23:53;;;;;;;35.38;23.90;;;;;;;13.51;49.02;103079.03;5029345;28;20059;-59
2022/03/22 10:26:20;;;;;;;39.00;24.35;;;;;;;13.68;47.34;103074.97;5031698;28;20041;-58
2022/03/22 10:28:53;;;;;;;36.38;23.42;;;;;;;13.70;48.52;103083.66;5032397;28;20035;-58
2022/03/22 10:31:30;;;;;;;37.30;23.58;;;;;;;13.71;47.77;103074.69;5032073;28;20033;-59
2022/03/22 10:33:55;;;;;;;38.08;22.90;;;;;;;13.73;47.16;103075.44;5031643;28;20030;-59
2022/03/22 10:36:21;;;;;;;35.83;23.05;;;;;;;13.79;47.46;103072.25;5032305;28;20037;-58
2022/03/22 10:38:59;;;;;;;38.00;23.40;;;;;;;13.79;48.27;103061.59;5032375;28;20079;-58
2022/03/22 10:41:26;;;;;;;35.70;23.58;;;;;;;14.03;46.59;103071.16;5032511;28;20101;-58
2022/03/22 10:44:09;;;;;;;36.58;23.20;;;;;;;14.21;46.77;103062.56;5032327;28;20037;-59
2022/03/22 10:46:36;;;;;;;33.50;21.90;;;;;;;14.31;46.75;103065.28;5032291;28;20025;-58
2022/03/22 10:49:09;;;;;;;35.75;22.35;;;;;;;14.45;45.82;103066.78;5032239;28;20075;-58
2022/03/22 10:51:47;;;;;;;36.88;23.33;;;;;;;14.38;44.04;103064.66;5031883;28;20033;-58
2022/03/22 10:54:17;;;;;;;33.35;22.40;;;;;;;14.37;44.68;103060.25;5032259;28;20068;-59
2022/03/22 10:56:44;;;;;;;40.90;22.88;;;;;;;14.52;45.36;103062.59;5031691;28;20030;-58
2022/03/22 10:59:12;;;;;;;33.20;21.23;;;;;;;14.52;44.88;103060.75;5031911;28;20469;-59
2022/03/22 11:01:41;;;;;;;38.60;21.73;;;;;;;14.62;44.18;103060.84;5031544;28;20100;-59
2022/03/22 11:04:07;;;;;;;38.75;21.92;;;;;;;14.68;43.73;103063.91;5032186;28;20064;-59
2022/03/22 11:06:33;;;;;;;33.47;21.83;;;;;;;14.76;44.56;103056.13;5031385;28;20061;-59
2022/03/22 11:09:00;;;;;;;36.72;22.25;;;;;;;14.96;44.36;103058.84;5031110;28;20075;-58
2022/03/22 11:11:25;;;;;;;34.22;21.55;;;;;;;15.02;45.30;103058.31;5030225;28;20021;-58
2022/03/22 11:13:51;;;;;;;33.97;20.98;;;;;;;15.02;45.33;103056.50;5031514;28;20758;-58
2022/03/22 11:16:19;;;;;;;35.08;20.15;;;;;;;15.12;44.37;103043.16;5031837;28;20029;-59
2022/03/22 11:18:46;;;;;;;31.85;18.95;;;;;;;15.28;44.37;103047.09;5031817;28;20038;-58
2022/03/22 11:21:18;;;;;;;31.85;19.60;;;;;;;15.35;43.46;103053.59;5031244;28;20029;-59
2022/03/22 11:23:44;;;;;;;31.55;20.42;;;;;;;15.44;42.12;103052.75;5031752;28;20037;-59
2022/03/22 11:26:17;;;;;;;31.00;18.02;;;;;;;15.46;43.25;103039.25;5025835;28;20457;-59
2022/03/22 11:28:44;;;;;;;29.30;17.85;;;;;;;15.56;42.66;103050.81;5039613;28;20124;-59
2022/03/22 11:31:10;;;;;;;28.30;17.90;;;;;;;15.63;42.80;103045.72;5031209;28;20090;-58
2022/03/22 11:36:27;;;;;;;33.70;19.48;;;;;;;15.80;41.60;103046.00;5026091;28;20064;-59
2022/03/22 11:38:54;;;;;;;32.25;18.77;;;;;;;15.90;41.02;103044.16;5028799;28;20029;-58
2022/03/22 11:44:35;;;;;;;28.45;16.38;;;;;;;16.09;41.09;103034.44;5032491;28;20067;-59
2022/03/22 11:47:08;;;;;;;28.52;16.85;;;;;;;16.10;40.96;103030.78;5018509;28;20038;-59
2022/03/22 11:50:09;;;;;;;29.92;17.60;;;;;;;16.10;42.60;103031.59;5030978;28;20112;-59